Valley, AL (36854)

4:04 AM CDT on July 30, 2015 (GMT -0500)
Lake Harding | | Change Station
CLOSE
Current Station
Personal Weather Station
Location: Hamilton, GA
Elevation: 528 ft
Nearby Weather Stations

Elev 528 ft 32.72 °N, 85.12 °W | Updated 7 seconds ago

Partly Cloudy
Partly Cloudy
76.3 °F
Feels Like 76 °F
N
0.0
Wind Variable Wind from South
Gusts 0.0 mph

Today
High -- | Low -- °F
--% Chance of Precip.
Yesterday
High -- | Low -- °F
Precip. -- in
5:52 AM 7:40 PM
Waxing Gibbous, 98% visible
Pressure 29.95 in
Visibility 7.0 miles
Clouds Clear
Heat Index 76 °F
Dew Point 75 °F
Humidity 95%
Rainfall 0.00 in
Snow Depth Not available.
UV 0.0 out of 12
Pollen 3.90 out of 12
Air Quality Not available.
Flu Activity Not available.
METAR KLGC 300855Z AUTO 00000KT 7SM CLR 25/25 A2995 RMK AO2 T02500250

More Conditions Fewer Conditions

Pressure 29.95 in
Visibility 7.0 miles
Clouds Clear
Heat Index 76 °F
Dew Point 75 °F
Humidity 95%
Rainfall 0.00 in
Snow Depth Not available.
UV 0.0 out of 12
Pollen 3.90 out of 12
Air Quality Not available.
Flu Activity Not available.
METAR KLGC 300855Z AUTO 00000KT 7SM CLR 25/25 A2995 RMK AO2 T02500250

More Conditions Fewer Conditions

10-Day Weather Forecast

×

Almanac

Astronomy

Jul. 30, 2015 Rise Set
Actual Time
Civil Twilight
Nautical Twilight
Astronomical Twilight
Moon
Length of Visible Light
Length of Day
Tomorrow will be .
, % of the Moon is Illuminated

Today's Extremes

State Highs State Lows

Community

WunderPhotos

Upload Photos

1,842,315 photos uploaded!

WunderBlogs® & News

Nearby

Air Quality

  Air Quality AQ Index Pollutant
Not available.

Snow Depth

Station Depth Elevation

Earthquake Activity

City Distance Mag. Time & Date
Minimum magnitude displayed is 2.5.

Coastal Water Temperatures

Place Temperature

Stations

Nearby Weather Stations

Station Location Temp. Windchill Dew Point Humidity Wind Precip. Elev Updated Type